Flight Track Log - Related Links

Times and Time Zones

All times are in EDT time to prevent confusion due to time zone crossing. See the EJA728 flight status page for this flight to view local times or setup timezone preferences in your user account.

Time Position Orientation Groundspeed Altitude Reporting Facility
EDT Latitude Longitude Course Direction KTS MPH feet Rate Location/Type
Mon 06:59:03 AM 38.9667 -77.5333 90° East 220 253 2,400  Level Potomac TRACON
Mon 07:00:03 AM 38.9833 -77.6000 288° West 183 211 3,100 350 Climbing Potomac TRACON
Mon 07:01:03 AM 39.0000 -77.6667 288° West 194 223 3,100  Level Potomac TRACON
Mon 07:02:03 AM 39.0333 -77.7000 322° Northwest 191 220 3,100 750 Level Potomac TRACON
Mon 07:03:03 AM 39.1000 -77.7000 360° North 209 241 4,600 1,000 Climbing Potomac TRACON
Mon 07:04:00 AM 39.3167 -76.9487 90° East  Level FlightAware Approximate
Mon 07:04:03 AM 39.1500 -77.6833 14° North 215 247 5,100  Level Potomac TRACON
Mon 07:05:03 AM 39.2000 -77.6667 14° North 204 235 5,100  Level Potomac TRACON
Mon 07:06:03 AM 39.2667 -77.6667 360° North 200 230 5,100  Level Potomac TRACON
Mon 07:07:03 AM 39.3000 -77.6167 49° Northeast 205 236 5,100  Level Potomac TRACON
Mon 07:08:03 AM 39.3333 -77.5500 57° Northeast 210 242 5,100  Level Potomac TRACON
Mon 07:09:03 AM 39.3333 -77.4833 90° East 200 230 5,100  Level Potomac TRACON
Mon 07:10:03 AM 39.3333 -77.4333 90° East 186 214 5,100  Level Potomac TRACON
Mon 07:11:03 AM 39.3000 -77.4500 201° Southwest 145 167 5,100  Level Potomac TRACON
Mon 07:12:03 AM 39.2500 -77.4500 180° South 166 191 5,100 -50 Level Potomac TRACON
Mon 07:13:03 AM 39.2167 -77.4500 180° South 156 180 5,000 -450 Descending Potomac TRACON
Mon 07:14:03 AM 39.1667 -77.4500 180° South 157 181 4,200 -850 Descending Potomac TRACON
Mon 07:15:03 AM 39.1167 -77.4500 180° South 169 194 3,300 -950 Descending Potomac TRACON
Mon 07:16:03 AM 39.0667 -77.4667 195° South 165 190 2,300 -950 Descending Potomac TRACON
Mon 07:17:03 AM 39.0333 -77.4667 180° South 170 196 1,400 -850 Descending Potomac TRACON
Mon 07:18:03 AM 38.9833 -77.4667 180° South 141 162 600 -500 Descending Potomac TRACON
Mon 07:19:03 AM 38.9500 -77.4667 180° South 140 161 400 -200 Descending Potomac TRACON
Mon 07:21:00 AM 39.0816 -77.2408 90° East  Level Estimated
Mon 07:28:00 AM 39.5502 -76.4230 90° East  Level Estimated
Mon 07:29:00 AM 39.6167 -76.3053 90° East  Level Estimated
Mon 07:30:00 AM 39.6830 -76.1873 78° East  Level Estimated
Mon 07:31:00 AM 39.7493 -76.0692 38° Northeast  Level Estimated
Mon 07:32:00 AM 39.8154 -75.9508 43° Northeast  Level Estimated
Mon 07:33:00 AM 39.7772 -75.8130 110° East  Level FlightAware Approximate
Mon 07:34:00 AM 39.7389 -75.6755 110° East  Level FlightAware Approximate
Mon 07:35:00 AM 39.7005 -75.5381 110° East  Level FlightAware Approximate
Mon 07:36:00 AM 39.7718 -75.4250 48° Northeast  Level Estimated
Mon 07:37:00 AM 39.8090 -75.2868 71° East  Level FlightAware Approximate
Mon 07:38:00 AM 39.8461 -75.1486 71° East  Level FlightAware Approximate
Mon 07:39:00 AM 39.8830 -75.0101 71° East  Level FlightAware Approximate
Mon 07:40:00 AM 39.9564 -74.8990 45° Northeast  Level Estimated
Mon 07:41:00 AM 40.0147 -74.7735 59° Northeast  Level FlightAware Approximate
Mon 07:42:00 AM 40.0883 -74.6623 47° Northeast  Level Estimated
Mon 07:43:00 AM 40.1595 -74.5484 51° Northeast  Level FlightAware Approximate
Mon 07:44:00 AM 40.2328 -74.4368 38° Northeast  Level Estimated
Mon 07:45:00 AM 40.3221 -74.3471 37° Northeast  Level FlightAware Approximate
Mon 07:46:00 AM 40.4113 -74.2572 38° Northeast  Level FlightAware Approximate
Mon 07:47:00 AM 40.5004 -74.1670 38° Northeast  Level FlightAware Approximate
Mon 07:48:00 AM 40.5714 -74.0523 76° East  Level Estimated
Mon 07:49:00 AM 40.5945 -73.9073 78° East  Level FlightAware Approximate
Mon 07:50:00 AM 40.6669 -73.7939 49° Northeast  Level Estimated
Mon 07:51:00 AM 40.7392 -73.6802 52° Northeast  Level Estimated
Mon 07:52:00 AM 40.8113 -73.5662 47° Northeast  Level Estimated
Mon 07:53:00 AM 40.8551 -73.4231 57° Northeast  Level FlightAware Approximate
Mon 07:54:00 AM 40.9329 -73.3257 49° Northeast  Level FlightAware Approximate
Mon 07:55:00 AM 41.0064 -73.2130 50° Northeast  Level FlightAware Approximate
Mon 07:56:00 AM 41.0779 -73.0978 51° Northeast  Level FlightAware Approximate
Mon 07:57:00 AM 41.1492 -72.9824 51° Northeast  Level FlightAware Approximate
Mon 07:58:00 AM 41.2217 -72.8697 64° Northeast  Level FlightAware Approximate
Mon 07:59:00 AM 41.2708 -72.7351 64° Northeast  Level FlightAware Approximate
Mon 08:00:00 AM 41.3197 -72.6003 64° Northeast  Level FlightAware Approximate
Mon 08:01:00 AM 41.3756 -72.4733 66° East  Level FlightAware Approximate
Mon 08:02:00 AM 41.4214 -72.3363 66° East  Level FlightAware Approximate
Mon 08:03:00 AM 41.4670 -72.1992 63° Northeast  Level FlightAware Approximate
Mon 08:04:00 AM 41.5184 -72.0656 63° Northeast  Level FlightAware Approximate
Mon 08:05:00 AM 41.5676 -71.9306 66° East  Level FlightAware Approximate
Mon 08:06:00 AM 41.6118 -71.7923 69° East  Level FlightAware Approximate
Mon 08:07:00 AM 41.6519 -71.6517 69° East  Level FlightAware Approximate
Mon 08:08:00 AM 41.6855 -71.5102 66° East  Level FlightAware Approximate
Mon 08:09:00 AM 41.7367 -71.3766 56° Northeast  Level FlightAware Approximate
Mon 08:10:00 AM 41.7882 -71.2428 63° Northeast  Level FlightAware Approximate
Mon 08:11:00 AM 41.8493 -71.1177 48° Northeast  Level FlightAware Approximate
Mon 08:12:00 AM 41.9596 -71.0968 14° North  Level FlightAware Approximate
Mon 08:13:00 AM 42.0688 -71.0604 14° North  Level FlightAware Approximate
Mon 08:14:00 AM 42.1793 -71.0343 10° North  Level FlightAware Approximate
Mon 08:15:00 AM 42.2902 -71.0108 10° North  Level FlightAware Approximate
Mon 08:16:00 AM 42.3500 -71.0000 North  Level FlightAware Approximate
Mon 08:17:00 AM 42.3630 -71.0064 North  Level Estimated
Mon 08:18:00 AM 42.3630 -71.0064 North  Level Estimated
Mon 08:19:00 AM 42.3630 -71.0064 North  Level Estimated
Mon 08:20:00 AM 42.3630 -71.0064 North  Level Estimated
Mon 08:21:00 AM 42.3630 -71.0064 North  Level Estimated
Mon 08:22:00 AM 42.3630 -71.0064 North  Level Estimated
Mon 08:23:00 AM 42.3630 -71.0064 North  Level Estimated
Mon 08:24:00 AM 42.3630 -71.0064 North  Level Estimated
Mon 08:25:00 AM 42.3630 -71.0064 North  Level Estimated
Mon 08:26:00 AM 42.3630 -71.0064 North  Level Estimated
Mon 08:27:00 AM 42.3630 -71.0064 North  Level Estimated
Mon 08:28:00 AM 42.3630 -71.0064 North  Level Estimated
Mon 08:29:00 AM 42.3630 -71.0064 North  Level Estimated
Mon 08:30:00 AM 42.3630 -71.0064 North  Level Estimated
Mon 08:31:00 AM 42.3630 -71.0064 North  Level Estimated

Login

Don't have an account? Register now (free) for customized features, flight alerts, and more!